<?xml version="1.0" encoding="UTF-8" standalone="no" ?>
<gpx xmlns="http://www.topografix.com/GPX/1/1" xmlns:xsi="http://www.w3.org/2001/XMLSchema-instance" xsi:schemaLocation="http://www.topografix.com/GPX/1/1 http://www.topografix.com/GPX/1/1/gpx.xsd" version="1.1" creator="VisuGPX - https://www.visugpx.com">
  <metadata>
    <name>Hameau de Douch - Combe du Salis</name>
    <desc><![CDATA[2016-11 - Hameau de Douch - Combe du Salis

[b]album[/b] : [url]https://goo.gl/photos/Hqxg8aoM4iaiSGFj9[/url]
[img]https://4.bp.blogspot.com/--bSJRrr99Aw/WOaADRe0ueI/AAAAAAAAR_4/AL8S9tnFhhsKJMPW2m-0MTGXU4Z9d7GJACLcB/s1600/2016-11_douch_combe-salis_i.JPG[/img]
[b]Idées de randonnées dans la même région[/b]
Parcours : [url]https://www.visugpx.com/membres/24856/montagne/haut-languedoc/[/url]
Photos : [url]https://jcvertygo.blogspot.com/p/haut-languedoc.html[/url]]]></desc>
  </metadata>
  <trk>
    <name><![CDATA[Hameau de Douch - Combe du Salis_1]]></name>
    <trkseg>
      <trkpt lat="43.61107" lon="2.96528">
        <ele>921.3</ele>
        <time>2016-11-13T08:32:34Z</time>
      </trkpt>
      <trkpt lat="43.61109" lon="2.96549">
        <ele>902.13937899482</ele>
        <time>2016-11-13T08:32:39Z</time>
      </trkpt>
      <trkpt lat="43.611" lon="2.96536">
        <ele>897.81465611319</ele>
        <time>2016-11-13T08:32:59Z</time>
      </trkpt>
      <trkpt lat="43.61112" lon="2.96512">
        <ele>901.15757956104</ele>
        <time>2016-11-13T08:33:38Z</time>
      </trkpt>
      <trkpt lat="43.61154" lon="2.96473">
        <ele>906.16449947336</ele>
        <time>2016-11-13T08:34:29Z</time>
      </trkpt>
      <trkpt lat="43.61166" lon="2.96461">
        <ele>910.87425407922</ele>
        <time>2016-11-13T08:34:39Z</time>
      </trkpt>
      <trkpt lat="43.61218" lon="2.96341">
        <ele>914.6454094679</ele>
        <time>2016-11-13T08:36:38Z</time>
      </trkpt>
      <trkpt lat="43.61218" lon="2.9634">
        <ele>914.6454094679</ele>
        <time>2016-11-13T08:36:39Z</time>
      </trkpt>
      <trkpt lat="43.61218" lon="2.96332">
        <ele>914.6454094679</ele>
        <time>2016-11-13T08:36:44Z</time>
      </trkpt>
      <trkpt lat="43.61215" lon="2.96316">
        <ele>917.91476607098</ele>
        <time>2016-11-13T08:36:54Z</time>
      </trkpt>
      <trkpt lat="43.61215" lon="2.96312">
        <ele>917.91476607098</ele>
        <time>2016-11-13T08:36:59Z</time>
      </trkpt>
      <trkpt lat="43.61237" lon="2.9627">
        <ele>924.12270696318</ele>
        <time>2016-11-13T08:38:05Z</time>
      </trkpt>
      <trkpt lat="43.61257" lon="2.96256">
        <ele>930.08937129762</ele>
        <time>2016-11-13T08:38:44Z</time>
      </trkpt>
      <trkpt lat="43.61279" lon="2.96256">
        <ele>935.14897041964</ele>
        <time>2016-11-13T08:39:21Z</time>
      </trkpt>
      <trkpt lat="43.61281" lon="2.96255">
        <ele>935.14897041964</ele>
        <time>2016-11-13T08:39:21Z</time>
      </trkpt>
      <trkpt lat="43.61311" lon="2.96258">
        <ele>938.23543907102</ele>
        <time>2016-11-13T08:39:57Z</time>
      </trkpt>
      <trkpt lat="43.61311" lon="2.96257">
        <ele>938.23543907102</ele>
        <time>2016-11-13T08:39:57Z</time>
      </trkpt>
      <trkpt lat="43.61312" lon="2.96257">
        <ele>938.23543907102</ele>
        <time>2016-11-13T08:40:01Z</time>
      </trkpt>
      <trkpt lat="43.61345" lon="2.96248">
        <ele>939.65671325962</ele>
        <time>2016-11-13T08:40:48Z</time>
      </trkpt>
      <trkpt lat="43.61406" lon="2.96267">
        <ele>939.02332284365</ele>
        <time>2016-11-13T08:41:57Z</time>
      </trkpt>
      <trkpt lat="43.61421" lon="2.96258">
        <ele>937.36451560152</ele>
        <time>2016-11-13T08:42:39Z</time>
      </trkpt>
      <trkpt lat="43.61419" lon="2.96251">
        <ele>937.36451560152</ele>
        <time>2016-11-13T08:42:51Z</time>
      </trkpt>
      <trkpt lat="43.61419" lon="2.96249">
        <ele>937.36451560152</ele>
        <time>2016-11-13T08:42:54Z</time>
      </trkpt>
      <trkpt lat="43.61418" lon="2.96244">
        <ele>935.53717257953</ele>
        <time>2016-11-13T08:43:04Z</time>
      </trkpt>
      <trkpt lat="43.61411" lon="2.96229">
        <ele>933.53600573073</ele>
        <time>2016-11-13T08:43:29Z</time>
      </trkpt>
      <trkpt lat="43.61407" lon="2.9622">
        <ele>933.53600573073</ele>
        <time>2016-11-13T08:43:29Z</time>
      </trkpt>
      <trkpt lat="43.61405" lon="2.96211">
        <ele>931.44531857252</ele>
        <time>2016-11-13T08:43:38Z</time>
      </trkpt>
      <trkpt lat="43.61404" lon="2.96211">
        <ele>931.44531857252</ele>
        <time>2016-11-13T08:43:39Z</time>
      </trkpt>
      <trkpt lat="43.61375" lon="2.96149">
        <ele>928.8129159896</ele>
        <time>2016-11-13T08:44:46Z</time>
      </trkpt>
      <trkpt lat="43.61367" lon="2.96136">
        <ele>925.98433734544</ele>
        <time>2016-11-13T08:45:06Z</time>
      </trkpt>
      <trkpt lat="43.61359" lon="2.96125">
        <ele>923.05029998962</ele>
        <time>2016-11-13T08:45:23Z</time>
      </trkpt>
      <trkpt lat="43.61353" lon="2.96114">
        <ele>920.11302144024</ele>
        <time>2016-11-13T08:45:23Z</time>
      </trkpt>
      <trkpt lat="43.6135" lon="2.961">
        <ele>917.19352148857</ele>
        <time>2016-11-13T08:45:40Z</time>
      </trkpt>
      <trkpt lat="43.6135" lon="2.96097">
        <ele>917.19352148857</ele>
        <time>2016-11-13T08:45:40Z</time>
      </trkpt>
      <trkpt lat="43.6135" lon="2.96059">
        <ele>913.82467559226</ele>
        <time>2016-11-13T08:46:36Z</time>
      </trkpt>
      <trkpt lat="43.61332" lon="2.96054">
        <ele>910.40677120031</ele>
        <time>2016-11-13T08:47:25Z</time>
      </trkpt>
      <trkpt lat="43.61333" lon="2.96048">
        <ele>910.40677120031</ele>
        <time>2016-11-13T08:47:25Z</time>
      </trkpt>
      <trkpt lat="43.61326" lon="2.96046">
        <ele>906.99530662951</ele>
        <time>2016-11-13T08:47:34Z</time>
      </trkpt>
      <trkpt lat="43.61326" lon="2.96047">
        <ele>906.99530662951</ele>
        <time>2016-11-13T08:47:34Z</time>
      </trkpt>
      <trkpt lat="43.61322" lon="2.9603">
        <ele>903.49219511699</ele>
        <time>2016-11-13T08:48:03Z</time>
      </trkpt>
      <trkpt lat="43.61322" lon="2.96029">
        <ele>903.49219511699</ele>
        <time>2016-11-13T08:48:07Z</time>
      </trkpt>
      <trkpt lat="43.61334" lon="2.96005">
        <ele>899.6230950222</ele>
        <time>2016-11-13T08:48:39Z</time>
      </trkpt>
      <trkpt lat="43.61335" lon="2.95999">
        <ele>899.6230950222</ele>
        <time>2016-11-13T08:48:39Z</time>
      </trkpt>
      <trkpt lat="43.61345" lon="2.95977">
        <ele>895.43746285917</ele>
        <time>2016-11-13T08:49:19Z</time>
      </trkpt>
      <trkpt lat="43.61349" lon="2.9596">
        <ele>891.49628879566</ele>
        <time>2016-11-13T08:49:39Z</time>
      </trkpt>
      <trkpt lat="43.61355" lon="2.95954">
        <ele>891.49628879566</ele>
        <time>2016-11-13T08:49:49Z</time>
      </trkpt>
      <trkpt lat="43.61363" lon="2.95947">
        <ele>886.9828673319</ele>
        <time>2016-11-13T08:50:37Z</time>
      </trkpt>
      <trkpt lat="43.61367" lon="2.95946">
        <ele>886.9828673319</ele>
        <time>2016-11-13T08:50:41Z</time>
      </trkpt>
      <trkpt lat="43.61375" lon="2.95941">
        <ele>882.40274560893</ele>
        <time>2016-11-13T08:51:00Z</time>
      </trkpt>
      <trkpt lat="43.61377" lon="2.95941">
        <ele>882.40274560893</ele>
        <time>2016-11-13T08:51:10Z</time>
      </trkpt>
      <trkpt lat="43.61386" lon="2.95928">
        <ele>877.91489124742</ele>
        <time>2016-11-13T08:51:38Z</time>
      </trkpt>
      <trkpt lat="43.61388" lon="2.95924">
        <ele>877.91489124742</ele>
        <time>2016-11-13T08:51:39Z</time>
      </trkpt>
      <trkpt lat="43.61401" lon="2.95905">
        <ele>873.59869176647</ele>
        <time>2016-11-13T08:52:09Z</time>
      </trkpt>
      <trkpt lat="43.61408" lon="2.95897">
        <ele>873.59869176647</ele>
        <time>2016-11-13T08:52:40Z</time>
      </trkpt>
      <trkpt lat="43.61418" lon="2.95886">
        <ele>869.28009652266</ele>
        <time>2016-11-13T08:53:09Z</time>
      </trkpt>
      <trkpt lat="43.61418" lon="2.95885">
        <ele>869.28009652266</ele>
        <time>2016-11-13T08:53:24Z</time>
      </trkpt>
      <trkpt lat="43.61428" lon="2.95885">
        <ele>864.18444905497</ele>
        <time>2016-11-13T08:54:40Z</time>
      </trkpt>
      <trkpt lat="43.61448" lon="2.95872">
        <ele>859.05614550965</ele>
        <time>2016-11-13T08:55:03Z</time>
      </trkpt>
      <trkpt lat="43.61448" lon="2.95871">
        <ele>859.05614550965</ele>
        <time>2016-11-13T08:55:03Z</time>
      </trkpt>
      <trkpt lat="43.61462" lon="2.95873">
        <ele>853.48589829794</ele>
        <time>2016-11-13T08:56:06Z</time>
      </trkpt>
      <trkpt lat="43.61466" lon="2.95872">
        <ele>853.48589829794</ele>
        <time>2016-11-13T08:56:06Z</time>
      </trkpt>
      <trkpt lat="43.61481" lon="2.95872">
        <ele>848.2226082575</ele>
        <time>2016-11-13T08:56:30Z</time>
      </trkpt>
      <trkpt lat="43.61489" lon="2.95876">
        <ele>848.2226082575</ele>
        <time>2016-11-13T08:56:46Z</time>
      </trkpt>
      <trkpt lat="43.61494" lon="2.95875">
        <ele>843.02133157412</ele>
        <time>2016-11-13T08:57:03Z</time>
      </trkpt>
      <trkpt lat="43.61507" lon="2.95866">
        <ele>838.23947237836</ele>
        <time>2016-11-13T08:57:20Z</time>
      </trkpt>
      <trkpt lat="43.61508" lon="2.95863">
        <ele>838.23947237836</ele>
        <time>2016-11-13T08:57:22Z</time>
      </trkpt>
      <trkpt lat="43.61516" lon="2.95851">
        <ele>833.85391990646</ele>
        <time>2016-11-13T08:57:43Z</time>
      </trkpt>
      <trkpt lat="43.61517" lon="2.9585">
        <ele>833.85391990646</ele>
        <time>2016-11-13T08:57:44Z</time>
      </trkpt>
      <trkpt lat="43.61529" lon="2.95843">
        <ele>829.73898885296</ele>
        <time>2016-11-13T08:58:06Z</time>
      </trkpt>
      <trkpt lat="43.61531" lon="2.9584">
        <ele>829.73898885296</ele>
        <time>2016-11-13T08:58:06Z</time>
      </trkpt>
      <trkpt lat="43.61537" lon="2.95831">
        <ele>825.97892296174</ele>
        <time>2016-11-13T08:58:16Z</time>
      </trkpt>
      <trkpt lat="43.61541" lon="2.95828">
        <ele>825.97892296174</ele>
        <time>2016-11-13T08:58:24Z</time>
      </trkpt>
      <trkpt lat="43.61541" lon="2.95827">
        <ele>825.97892296174</ele>
        <time>2016-11-13T08:58:38Z</time>
      </trkpt>
      <trkpt lat="43.61549" lon="2.95819">
        <ele>822.54772870784</ele>
        <time>2016-11-13T08:59:40Z</time>
      </trkpt>
      <trkpt lat="43.61566" lon="2.95793">
        <ele>819.34400861022</ele>
        <time>2016-11-13T09:00:50Z</time>
      </trkpt>
      <trkpt lat="43.61571" lon="2.95786">
        <ele>819.34400861022</ele>
        <time>2016-11-13T09:00:50Z</time>
      </trkpt>
      <trkpt lat="43.61587" lon="2.95783">
        <ele>816.433865014</ele>
        <time>2016-11-13T09:01:21Z</time>
      </trkpt>
      <trkpt lat="43.61589" lon="2.9578">
        <ele>816.433865014</ele>
        <time>2016-11-13T09:01:24Z</time>
      </trkpt>
      <trkpt lat="43.61602" lon="2.95755">
        <ele>813.56284664411</ele>
        <time>2016-11-13T09:01:57Z</time>
      </trkpt>
      <trkpt lat="43.61603" lon="2.95753">
        <ele>813.56284664411</ele>
        <time>2016-11-13T09:03:20Z</time>
      </trkpt>
      <trkpt lat="43.61597" lon="2.95741">
        <ele>810.65654199818</ele>
        <time>2016-11-13T09:04:08Z</time>
      </trkpt>
      <trkpt lat="43.61605" lon="2.95737">
        <ele>810.65654199818</ele>
        <time>2016-11-13T09:05:33Z</time>
      </trkpt>
      <trkpt lat="43.61606" lon="2.95735">
        <ele>808.20176031134</ele>
        <time>2016-11-13T09:05:33Z</time>
      </trkpt>
      <trkpt lat="43.61607" lon="2.95734">
        <ele>808.20176031134</ele>
        <time>2016-11-13T09:06:05Z</time>
      </trkpt>
      <trkpt lat="43.61615" lon="2.95724">
        <ele>806.06151578111</ele>
        <time>2016-11-13T09:07:41Z</time>
      </trkpt>
      <trkpt lat="43.61613" lon="2.95714">
        <ele>806.06151578111</ele>
        <time>2016-11-13T09:08:10Z</time>
      </trkpt>
      <trkpt lat="43.61602" lon="2.95713">
        <ele>804.13643445615</ele>
        <time>2016-11-13T09:08:34Z</time>
      </trkpt>
      <trkpt lat="43.61596" lon="2.957">
        <ele>802.65002129275</ele>
        <time>2016-11-13T09:09:25Z</time>
      </trkpt>
      <trkpt lat="43.61597" lon="2.95691">
        <ele>802.65002129275</ele>
        <time>2016-11-13T09:09:25Z</time>
      </trkpt>
      <trkpt lat="43.61597" lon="2.95691">
        <ele>802.65002129275</ele>
        <time>2016-11-13T09:09:35Z</time>
      </trkpt>
      <trkpt lat="43.61609" lon="2.95689">
        <ele>800.99147556797</ele>
        <time>2016-11-13T09:09:54Z</time>
      </trkpt>
      <trkpt lat="43.61606" lon="2.95638">
        <ele>798.91466647194</ele>
        <time>2016-11-13T09:10:49Z</time>
      </trkpt>
      <trkpt lat="43.61601" lon="2.95626">
        <ele>797.11443524705</ele>
        <time>2016-11-13T09:11:00Z</time>
      </trkpt>
      <trkpt lat="43.61595" lon="2.95615">
        <ele>795.0548117797</ele>
        <time>2016-11-13T09:11:39Z</time>
      </trkpt>
      <trkpt lat="43.61593" lon="2.95572">
        <ele>792.66528394991</ele>
        <time>2016-11-13T09:12:46Z</time>
      </trkpt>
      <trkpt lat="43.61596" lon="2.95564">
        <ele>792.66528394991</ele>
        <time>2016-11-13T09:15:18Z</time>
      </trkpt>
      <trkpt lat="43.61604" lon="2.95551">
        <ele>788.63774605895</ele>
        <time>2016-11-13T09:16:02Z</time>
      </trkpt>
      <trkpt lat="43.61604" lon="2.95545">
        <ele>788.63774605895</ele>
        <time>2016-11-13T09:16:45Z</time>
      </trkpt>
      <trkpt lat="43.61616" lon="2.95511">
        <ele>784.59224126799</ele>
        <time>2016-11-13T09:17:21Z</time>
      </trkpt>
      <trkpt lat="43.61626" lon="2.95501">
        <ele>780.41578511358</ele>
        <time>2016-11-13T09:18:28Z</time>
      </trkpt>
      <trkpt lat="43.61629" lon="2.95496">
        <ele>780.41578511358</ele>
        <time>2016-11-13T09:18:28Z</time>
      </trkpt>
      <trkpt lat="43.61637" lon="2.95477">
        <ele>776.39231292401</ele>
        <time>2016-11-13T09:18:43Z</time>
      </trkpt>
      <trkpt lat="43.61638" lon="2.95476">
        <ele>776.39231292401</ele>
        <time>2016-11-13T09:18:44Z</time>
      </trkpt>
      <trkpt lat="43.61658" lon="2.95441">
        <ele>772.61774161308</ele>
        <time>2016-11-13T09:19:33Z</time>
      </trkpt>
      <trkpt lat="43.6167" lon="2.95434">
        <ele>769.13453957023</ele>
        <time>2016-11-13T09:20:00Z</time>
      </trkpt>
      <trkpt lat="43.61677" lon="2.9542">
        <ele>765.95109037174</ele>
        <time>2016-11-13T09:20:46Z</time>
      </trkpt>
      <trkpt lat="43.61708" lon="2.95356">
        <ele>760.56725538039</ele>
        <time>2016-11-13T09:22:29Z</time>
      </trkpt>
      <trkpt lat="43.61707" lon="2.95345">
        <ele>760.56725538039</ele>
        <time>2016-11-13T09:27:35Z</time>
      </trkpt>
      <trkpt lat="43.61704" lon="2.9535">
        <ele>755.49319823503</ele>
        <time>2016-11-13T09:27:51Z</time>
      </trkpt>
      <trkpt lat="43.61704" lon="2.95352">
        <ele>755.49319823503</ele>
        <time>2016-11-13T09:27:57Z</time>
      </trkpt>
      <trkpt lat="43.61703" lon="2.95357">
        <ele>755.49319823503</ele>
        <time>2016-11-13T09:28:14Z</time>
      </trkpt>
      <trkpt lat="43.61694" lon="2.95379">
        <ele>750.98913394568</ele>
        <time>2016-11-13T09:28:49Z</time>
      </trkpt>
      <trkpt lat="43.61692" lon="2.95393">
        <ele>747.11655349759</ele>
        <time>2016-11-13T09:30:17Z</time>
      </trkpt>
      <trkpt lat="43.61695" lon="2.95396">
        <ele>747.11655349759</ele>
        <time>2016-11-13T09:31:49Z</time>
      </trkpt>
      <trkpt lat="43.61696" lon="2.95396">
        <ele>747.11655349759</ele>
        <time>2016-11-13T09:34:59Z</time>
      </trkpt>
      <trkpt lat="43.61697" lon="2.95394">
        <ele>747.11655349759</ele>
        <time>2016-11-13T09:35:04Z</time>
      </trkpt>
      <trkpt lat="43.61686" lon="2.95405">
        <ele>744.3981408934</ele>
        <time>2016-11-13T09:39:34Z</time>
      </trkpt>
      <trkpt lat="43.61685" lon="2.95406">
        <ele>744.3981408934</ele>
        <time>2016-11-13T09:39:34Z</time>
      </trkpt>
      <trkpt lat="43.61685" lon="2.95406">
        <ele>744.3981408934</ele>
        <time>2016-11-13T09:39:35Z</time>
      </trkpt>
      <trkpt lat="43.61672" lon="2.95422">
        <ele>742.23168026477</ele>
        <time>2016-11-13T09:40:07Z</time>
      </trkpt>
      <trkpt lat="43.61669" lon="2.95425">
        <ele>742.23168026477</ele>
        <time>2016-11-13T09:40:08Z</time>
      </trkpt>
      <trkpt lat="43.61659" lon="2.95439">
        <ele>740.52848485966</ele>
        <time>2016-11-13T09:40:23Z</time>
      </trkpt>
      <trkpt lat="43.61655" lon="2.95443">
        <ele>740.52848485966</ele>
        <time>2016-11-13T09:40:25Z</time>
      </trkpt>
      <trkpt lat="43.61645" lon="2.95455">
        <ele>739.29314825456</ele>
        <time>2016-11-13T09:40:42Z</time>
      </trkpt>
      <trkpt lat="43.61643" lon="2.95457">
        <ele>739.29314825456</ele>
        <time>2016-11-13T09:40:44Z</time>
      </trkpt>
      <trkpt lat="43.61641" lon="2.95462">
        <ele>739.29314825456</ele>
        <time>2016-11-13T09:40:49Z</time>
      </trkpt>
      <trkpt lat="43.61619" lon="2.95506">
        <ele>738.76114321275</ele>
        <time>2016-11-13T09:41:56Z</time>
      </trkpt>
      <trkpt lat="43.61616" lon="2.95511">
        <ele>738.76114321275</ele>
        <time>2016-11-13T09:41:56Z</time>
      </trkpt>
      <trkpt lat="43.61608" lon="2.95542">
        <ele>739.52482549849</ele>
        <time>2016-11-13T09:42:44Z</time>
      </trkpt>
      <trkpt lat="43.616" lon="2.9558">
        <ele>740.37424567774</ele>
        <time>2016-11-13T09:43:39Z</time>
      </trkpt>
      <trkpt lat="43.61601" lon="2.95593">
        <ele>741.52481897403</ele>
        <time>2016-11-13T09:43:56Z</time>
      </trkpt>
      <trkpt lat="43.61607" lon="2.95629">
        <ele>743.16007488665</ele>
        <time>2016-11-13T09:44:16Z</time>
      </trkpt>
      <trkpt lat="43.61608" lon="2.9563">
        <ele>743.16007488665</ele>
        <time>2016-11-13T09:44:25Z</time>
      </trkpt>
      <trkpt lat="43.61613" lon="2.95648">
        <ele>745.07255209153</ele>
        <time>2016-11-13T09:44:39Z</time>
      </trkpt>
      <trkpt lat="43.61613" lon="2.95649">
        <ele>745.07255209153</ele>
        <time>2016-11-13T09:44:47Z</time>
      </trkpt>
      <trkpt lat="43.61612" lon="2.95663">
        <ele>747.34429974164</ele>
        <time>2016-11-13T09:45:03Z</time>
      </trkpt>
      <trkpt lat="43.61611" lon="2.95667">
        <ele>747.34429974164</ele>
        <time>2016-11-13T09:45:06Z</time>
      </trkpt>
      <trkpt lat="43.61612" lon="2.95671">
        <ele>747.34429974164</ele>
        <time>2016-11-13T09:45:29Z</time>
      </trkpt>
      <trkpt lat="43.61597" lon="2.95719">
        <ele>750.38229132233</ele>
        <time>2016-11-13T09:46:20Z</time>
      </trkpt>
      <trkpt lat="43.61602" lon="2.95727">
        <ele>750.38229132233</ele>
        <time>2016-11-13T09:46:32Z</time>
      </trkpt>
      <trkpt lat="43.61613" lon="2.95727">
        <ele>753.57976263154</ele>
        <time>2016-11-13T09:46:56Z</time>
      </trkpt>
      <trkpt lat="43.61622" lon="2.95731">
        <ele>756.83669707897</ele>
        <time>2016-11-13T09:47:24Z</time>
      </trkpt>
      <trkpt lat="43.61596" lon="2.95772">
        <ele>761.012349368</ele>
        <time>2016-11-13T09:48:45Z</time>
      </trkpt>
      <trkpt lat="43.61576" lon="2.95792">
        <ele>765.45786091973</ele>
        <time>2016-11-13T09:49:37Z</time>
      </trkpt>
      <trkpt lat="43.61572" lon="2.95797">
        <ele>765.45786091973</ele>
        <time>2016-11-13T09:49:37Z</time>
      </trkpt>
      <trkpt lat="43.61537" lon="2.95822">
        <ele>770.35054186168</ele>
        <time>2016-11-13T09:50:40Z</time>
      </trkpt>
      <trkpt lat="43.61536" lon="2.95827">
        <ele>770.35054186168</ele>
        <time>2016-11-13T09:50:41Z</time>
      </trkpt>
      <trkpt lat="43.61476" lon="2.95867">
        <ele>776.4736081572</ele>
        <time>2016-11-13T09:52:45Z</time>
      </trkpt>
      <trkpt lat="43.61474" lon="2.95866">
        <ele>776.4736081572</ele>
        <time>2016-11-13T09:52:51Z</time>
      </trkpt>
      <trkpt lat="43.61461" lon="2.95864">
        <ele>782.27155220592</ele>
        <time>2016-11-13T09:53:08Z</time>
      </trkpt>
      <trkpt lat="43.61411" lon="2.959">
        <ele>788.64019143125</ele>
        <time>2016-11-13T09:54:25Z</time>
      </trkpt>
      <trkpt lat="43.61403" lon="2.95904">
        <ele>788.64019143125</ele>
        <time>2016-11-13T09:54:25Z</time>
      </trkpt>
      <trkpt lat="43.61395" lon="2.95909">
        <ele>794.83674665906</ele>
        <time>2016-11-13T09:54:41Z</time>
      </trkpt>
      <trkpt lat="43.61393" lon="2.95912">
        <ele>794.83674665906</ele>
        <time>2016-11-13T09:54:44Z</time>
      </trkpt>
      <trkpt lat="43.6139" lon="2.95915">
        <ele>794.83674665906</ele>
        <time>2016-11-13T09:54:54Z</time>
      </trkpt>
      <trkpt lat="43.61384" lon="2.95922">
        <ele>800.92362937299</ele>
        <time>2016-11-13T09:55:01Z</time>
      </trkpt>
      <trkpt lat="43.61378" lon="2.95932">
        <ele>806.7287274241</ele>
        <time>2016-11-13T09:55:20Z</time>
      </trkpt>
      <trkpt lat="43.61364" lon="2.95941">
        <ele>812.46876818608</ele>
        <time>2016-11-13T09:56:32Z</time>
      </trkpt>
      <trkpt lat="43.61355" lon="2.95947">
        <ele>818.11457641523</ele>
        <time>2016-11-13T09:56:46Z</time>
      </trkpt>
      <trkpt lat="43.61355" lon="2.95948">
        <ele>818.11457641523</ele>
        <time>2016-11-13T09:56:51Z</time>
      </trkpt>
      <trkpt lat="43.6134" lon="2.95978">
        <ele>824.7071703281</ele>
        <time>2016-11-13T09:58:20Z</time>
      </trkpt>
      <trkpt lat="43.61334" lon="2.95987">
        <ele>830.84383991896</ele>
        <time>2016-11-13T09:58:34Z</time>
      </trkpt>
      <trkpt lat="43.6133" lon="2.95991">
        <ele>830.84383991896</ele>
        <time>2016-11-13T09:58:42Z</time>
      </trkpt>
      <trkpt lat="43.61326" lon="2.95999">
        <ele>836.64013289298</ele>
        <time>2016-11-13T09:58:57Z</time>
      </trkpt>
      <trkpt lat="43.61325" lon="2.96002">
        <ele>836.64013289298</ele>
        <time>2016-11-13T09:58:59Z</time>
      </trkpt>
      <trkpt lat="43.61324" lon="2.96006">
        <ele>836.64013289298</ele>
        <time>2016-11-13T09:59:14Z</time>
      </trkpt>
      <trkpt lat="43.61323" lon="2.96012">
        <ele>841.97393141115</ele>
        <time>2016-11-13T09:59:14Z</time>
      </trkpt>
      <trkpt lat="43.61323" lon="2.96013">
        <ele>841.97393141115</ele>
        <time>2016-11-13T09:59:25Z</time>
      </trkpt>
      <trkpt lat="43.61317" lon="2.96032">
        <ele>847.1523276575</ele>
        <time>2016-11-13T09:59:49Z</time>
      </trkpt>
      <trkpt lat="43.61322" lon="2.96053">
        <ele>852.30226947517</ele>
        <time>2016-11-13T10:00:43Z</time>
      </trkpt>
      <trkpt lat="43.61326" lon="2.96051">
        <ele>852.30226947517</ele>
        <time>2016-11-13T10:01:07Z</time>
      </trkpt>
      <trkpt lat="43.61333" lon="2.9606">
        <ele>858.20560859739</ele>
        <time>2016-11-13T10:03:00Z</time>
      </trkpt>
      <trkpt lat="43.61347" lon="2.96064">
        <ele>863.92640581343</ele>
        <time>2016-11-13T10:03:50Z</time>
      </trkpt>
      <trkpt lat="43.61346" lon="2.96074">
        <ele>863.92640581343</ele>
        <time>2016-11-13T10:04:04Z</time>
      </trkpt>
      <trkpt lat="43.61348" lon="2.96108">
        <ele>869.13237416405</ele>
        <time>2016-11-13T10:04:42Z</time>
      </trkpt>
      <trkpt lat="43.61348" lon="2.96109">
        <ele>869.13237416405</ele>
        <time>2016-11-13T10:04:42Z</time>
      </trkpt>
      <trkpt lat="43.61348" lon="2.96109">
        <ele>869.13237416405</ele>
        <time>2016-11-13T10:04:47Z</time>
      </trkpt>
      <trkpt lat="43.61356" lon="2.96123">
        <ele>873.99373107533</ele>
        <time>2016-11-13T10:05:08Z</time>
      </trkpt>
      <trkpt lat="43.61361" lon="2.96134">
        <ele>878.381273787</ele>
        <time>2016-11-13T10:05:26Z</time>
      </trkpt>
      <trkpt lat="43.6137" lon="2.96149">
        <ele>882.52338370186</ele>
        <time>2016-11-13T10:05:39Z</time>
      </trkpt>
      <trkpt lat="43.61384" lon="2.96166">
        <ele>886.40212123088</ele>
        <time>2016-11-13T10:06:06Z</time>
      </trkpt>
      <trkpt lat="43.61386" lon="2.9617">
        <ele>886.40212123088</ele>
        <time>2016-11-13T10:06:06Z</time>
      </trkpt>
      <trkpt lat="43.61389" lon="2.96182">
        <ele>889.85793075848</ele>
        <time>2016-11-13T10:06:31Z</time>
      </trkpt>
      <trkpt lat="43.61394" lon="2.96185">
        <ele>889.85793075848</ele>
        <time>2016-11-13T10:06:42Z</time>
      </trkpt>
      <trkpt lat="43.61396" lon="2.96188">
        <ele>889.85793075848</ele>
        <time>2016-11-13T10:06:42Z</time>
      </trkpt>
      <trkpt lat="43.61396" lon="2.96189">
        <ele>892.83123909435</ele>
        <time>2016-11-13T10:06:44Z</time>
      </trkpt>
      <trkpt lat="43.614" lon="2.96201">
        <ele>895.3552240774</ele>
        <time>2016-11-13T10:07:00Z</time>
      </trkpt>
      <trkpt lat="43.61413" lon="2.96265">
        <ele>898.24099041896</ele>
        <time>2016-11-13T10:08:24Z</time>
      </trkpt>
      <trkpt lat="43.61402" lon="2.96263">
        <ele>900.91275854388</ele>
        <time>2016-11-13T10:08:47Z</time>
      </trkpt>
      <trkpt lat="43.61398" lon="2.9626">
        <ele>900.91275854388</ele>
        <time>2016-11-13T10:08:50Z</time>
      </trkpt>
      <trkpt lat="43.6139" lon="2.96255">
        <ele>903.54464796031</ele>
        <time>2016-11-13T10:09:04Z</time>
      </trkpt>
      <trkpt lat="43.61384" lon="2.96251">
        <ele>903.54464796031</ele>
        <time>2016-11-13T10:09:08Z</time>
      </trkpt>
      <trkpt lat="43.61345" lon="2.96246">
        <ele>906.58677383137</ele>
        <time>2016-11-13T10:09:57Z</time>
      </trkpt>
      <trkpt lat="43.61337" lon="2.9625">
        <ele>906.58677383137</ele>
        <time>2016-11-13T10:09:57Z</time>
      </trkpt>
      <trkpt lat="43.61316" lon="2.96253">
        <ele>909.48936887094</ele>
        <time>2016-11-13T10:10:24Z</time>
      </trkpt>
      <trkpt lat="43.61312" lon="2.96254">
        <ele>909.48936887094</ele>
        <time>2016-11-13T10:10:29Z</time>
      </trkpt>
      <trkpt lat="43.61306" lon="2.96257">
        <ele>912.16192521465</ele>
        <time>2016-11-13T10:10:39Z</time>
      </trkpt>
      <trkpt lat="43.61303" lon="2.96259">
        <ele>912.16192521465</ele>
        <time>2016-11-13T10:10:44Z</time>
      </trkpt>
      <trkpt lat="43.61296" lon="2.96261">
        <ele>914.70893044774</ele>
        <time>2016-11-13T10:10:54Z</time>
      </trkpt>
      <trkpt lat="43.61292" lon="2.9626">
        <ele>914.70893044774</ele>
        <time>2016-11-13T10:10:59Z</time>
      </trkpt>
      <trkpt lat="43.61285" lon="2.96258">
        <ele>916.9683261027</ele>
        <time>2016-11-13T10:11:09Z</time>
      </trkpt>
      <trkpt lat="43.61282" lon="2.96257">
        <ele>916.9683261027</ele>
        <time>2016-11-13T10:11:14Z</time>
      </trkpt>
      <trkpt lat="43.61274" lon="2.96254">
        <ele>919.15138139688</ele>
        <time>2016-11-13T10:11:29Z</time>
      </trkpt>
      <trkpt lat="43.6125" lon="2.96258">
        <ele>921.58396555075</ele>
        <time>2016-11-13T10:12:06Z</time>
      </trkpt>
      <trkpt lat="43.61246" lon="2.96257">
        <ele>921.58396555075</ele>
        <time>2016-11-13T10:12:06Z</time>
      </trkpt>
      <trkpt lat="43.61236" lon="2.96256">
        <ele>923.91886055429</ele>
        <time>2016-11-13T10:12:19Z</time>
      </trkpt>
      <trkpt lat="43.61224" lon="2.96283">
        <ele>926.62754728311</ele>
        <time>2016-11-13T10:12:48Z</time>
      </trkpt>
      <trkpt lat="43.61227" lon="2.96339">
        <ele>929.771199522</ele>
        <time>2016-11-13T10:14:04Z</time>
      </trkpt>
      <trkpt lat="43.61229" lon="2.96345">
        <ele>929.771199522</ele>
        <time>2016-11-13T10:14:09Z</time>
      </trkpt>
      <trkpt lat="43.6123" lon="2.96348">
        <ele>929.771199522</ele>
        <time>2016-11-13T10:14:14Z</time>
      </trkpt>
      <trkpt lat="43.61228" lon="2.96379">
        <ele>933.10274970049</ele>
        <time>2016-11-13T10:14:44Z</time>
      </trkpt>
      <trkpt lat="43.61228" lon="2.9638">
        <ele>933.10274970049</ele>
        <time>2016-11-13T10:14:51Z</time>
      </trkpt>
      <trkpt lat="43.61212" lon="2.96408">
        <ele>936.07582433227</ele>
        <time>2016-11-13T10:15:43Z</time>
      </trkpt>
      <trkpt lat="43.6118" lon="2.96454">
        <ele>939.10768367645</ele>
        <time>2016-11-13T10:16:44Z</time>
      </trkpt>
      <trkpt lat="43.61179" lon="2.96459">
        <ele>939.10768367645</ele>
        <time>2016-11-13T10:16:50Z</time>
      </trkpt>
      <trkpt lat="43.61174" lon="2.96465">
        <ele>941.87866608685</ele>
        <time>2016-11-13T10:17:00Z</time>
      </trkpt>
      <trkpt lat="43.61108" lon="2.96511">
        <ele>945.00134045545</ele>
        <time>2016-11-13T10:18:44Z</time>
      </trkpt>
      <trkpt lat="43.61097" lon="2.96512">
        <ele>947.83177605438</ele>
        <time>2016-11-13T10:19:00Z</time>
      </trkpt>
      <trkpt lat="43.61075" lon="2.96534">
        <ele>951.02802340112</ele>
        <time>2016-11-13T10:19:51Z</time>
      </trkpt>
      <trkpt lat="43.61072" lon="2.96541">
        <ele>951.02802340112</ele>
        <time>2016-11-13T10:19:51Z</time>
      </trkpt>
      <trkpt lat="43.61065" lon="2.96556">
        <ele>954.08912925424</ele>
        <time>2016-11-13T10:20:28Z</time>
      </trkpt>
      <trkpt lat="43.61065" lon="2.96569">
        <ele>956.73870689932</ele>
        <time>2016-11-13T10:20:43Z</time>
      </trkpt>
      <trkpt lat="43.61061" lon="2.96599">
        <ele>959.64417330212</ele>
        <time>2016-11-13T10:22:44Z</time>
      </trkpt>
      <trkpt lat="43.61057" lon="2.96616">
        <ele>962.15502218415</ele>
        <time>2016-11-13T10:23:24Z</time>
      </trkpt>
      <trkpt lat="43.61041" lon="2.96647">
        <ele>964.47667610203</ele>
        <time>2016-11-13T10:23:59Z</time>
      </trkpt>
      <trkpt lat="43.61039" lon="2.96654">
        <ele>964.47667610203</ele>
        <time>2016-11-13T10:24:00Z</time>
      </trkpt>
      <trkpt lat="43.61025" lon="2.96674">
        <ele>966.55500037054</ele>
        <time>2016-11-13T10:24:24Z</time>
      </trkpt>
      <trkpt lat="43.61021" lon="2.96676">
        <ele>966.55500037054</ele>
        <time>2016-11-13T10:24:32Z</time>
      </trkpt>
      <trkpt lat="43.6101" lon="2.96689">
        <ele>968.54226004345</ele>
        <time>2016-11-13T10:24:47Z</time>
      </trkpt>
      <trkpt lat="43.61009" lon="2.96691">
        <ele>968.54226004345</ele>
        <time>2016-11-13T10:24:49Z</time>
      </trkpt>
      <trkpt lat="43.61002" lon="2.96707">
        <ele>970.36359143122</ele>
        <time>2016-11-13T10:25:09Z</time>
      </trkpt>
      <trkpt lat="43.60994" lon="2.96743">
        <ele>972.82914645948</ele>
        <time>2016-11-13T10:27:55Z</time>
      </trkpt>
      <trkpt lat="43.60996" lon="2.96747">
        <ele>972.82914645948</ele>
        <time>2016-11-13T10:27:59Z</time>
      </trkpt>
      <trkpt lat="43.60999" lon="2.96751">
        <ele>972.82914645948</ele>
        <time>2016-11-13T10:28:04Z</time>
      </trkpt>
      <trkpt lat="43.61002" lon="2.96756">
        <ele>975.08804628637</ele>
        <time>2016-11-13T10:28:09Z</time>
      </trkpt>
      <trkpt lat="43.61004" lon="2.96761">
        <ele>975.08804628637</ele>
        <time>2016-11-13T10:28:14Z</time>
      </trkpt>
      <trkpt lat="43.61007" lon="2.96765">
        <ele>975.08804628637</ele>
        <time>2016-11-13T10:28:19Z</time>
      </trkpt>
      <trkpt lat="43.6101" lon="2.96769">
        <ele>977.34681812183</ele>
        <time>2016-11-13T10:28:24Z</time>
      </trkpt>
      <trkpt lat="43.61013" lon="2.96773">
        <ele>977.34681812183</ele>
        <time>2016-11-13T10:28:29Z</time>
      </trkpt>
      <trkpt lat="43.61015" lon="2.96777">
        <ele>977.34681812183</ele>
        <time>2016-11-13T10:28:34Z</time>
      </trkpt>
      <trkpt lat="43.61019" lon="2.96781">
        <ele>979.45087598934</ele>
        <time>2016-11-13T10:28:39Z</time>
      </trkpt>
      <trkpt lat="43.61021" lon="2.96786">
        <ele>979.45087598934</ele>
        <time>2016-11-13T10:28:44Z</time>
      </trkpt>
      <trkpt lat="43.61027" lon="2.96798">
        <ele>981.43028444421</ele>
        <time>2016-11-13T10:28:59Z</time>
      </trkpt>
      <trkpt lat="43.61096" lon="2.9684">
        <ele>983.21228572125</ele>
        <time>2016-11-13T10:30:44Z</time>
      </trkpt>
      <trkpt lat="43.61101" lon="2.96842">
        <ele>983.21228572125</ele>
        <time>2016-11-13T10:30:52Z</time>
      </trkpt>
      <trkpt lat="43.6107" lon="2.96844">
        <ele>985.04698215305</ele>
        <time>2016-11-13T10:32:16Z</time>
      </trkpt>
      <trkpt lat="43.61041" lon="2.96872">
        <ele>986.30116827935</ele>
        <time>2016-11-13T10:33:25Z</time>
      </trkpt>
      <trkpt lat="43.61036" lon="2.96879">
        <ele>986.30116827935</ele>
        <time>2016-11-13T10:33:25Z</time>
      </trkpt>
      <trkpt lat="43.61012" lon="2.9691">
        <ele>986.4617303217</ele>
        <time>2016-11-13T10:34:26Z</time>
      </trkpt>
      <trkpt lat="43.6101" lon="2.96916">
        <ele>986.4617303217</ele>
        <time>2016-11-13T10:34:33Z</time>
      </trkpt>
      <trkpt lat="43.61002" lon="2.96927">
        <ele>986.18029032661</ele>
        <time>2016-11-13T10:34:49Z</time>
      </trkpt>
      <trkpt lat="43.61" lon="2.9693">
        <ele>986.18029032661</ele>
        <time>2016-11-13T10:34:54Z</time>
      </trkpt>
      <trkpt lat="43.61" lon="2.9693">
        <ele>986.18029032661</ele>
        <time>2016-11-13T10:35:17Z</time>
      </trkpt>
      <trkpt lat="43.60969" lon="2.96954">
        <ele>985.22583680784</ele>
        <time>2016-11-13T10:36:14Z</time>
      </trkpt>
      <trkpt lat="43.60939" lon="2.96953">
        <ele>983.7319327899</ele>
        <time>2016-11-13T10:37:16Z</time>
      </trkpt>
      <trkpt lat="43.60935" lon="2.96955">
        <ele>983.7319327899</ele>
        <time>2016-11-13T10:37:16Z</time>
      </trkpt>
      <trkpt lat="43.60929" lon="2.96963">
        <ele>982.01100859019</ele>
        <time>2016-11-13T10:37:49Z</time>
      </trkpt>
      <trkpt lat="43.60923" lon="2.96972">
        <ele>982.01100859019</ele>
        <time>2016-11-13T10:37:49Z</time>
      </trkpt>
      <trkpt lat="43.60912" lon="2.96979">
        <ele>979.97827284685</ele>
        <time>2016-11-13T10:38:21Z</time>
      </trkpt>
      <trkpt lat="43.60915" lon="2.96975">
        <ele>979.97827284685</ele>
        <time>2016-11-13T10:39:02Z</time>
      </trkpt>
      <trkpt lat="43.60915" lon="2.96966">
        <ele>977.29639706997</ele>
        <time>2016-11-13T10:40:06Z</time>
      </trkpt>
      <trkpt lat="43.60915" lon="2.96961">
        <ele>977.29639706997</ele>
        <time>2016-11-13T10:40:06Z</time>
      </trkpt>
      <trkpt lat="43.60912" lon="2.96956">
        <ele>977.29639706997</ele>
        <time>2016-11-13T10:40:19Z</time>
      </trkpt>
      <trkpt lat="43.60913" lon="2.96944">
        <ele>974.50466762717</ele>
        <time>2016-11-13T10:40:48Z</time>
      </trkpt>
      <trkpt lat="43.60915" lon="2.96934">
        <ele>974.50466762717</ele>
        <time>2016-11-13T10:41:06Z</time>
      </trkpt>
      <trkpt lat="43.60916" lon="2.96928">
        <ele>971.69925298272</ele>
        <time>2016-11-13T10:41:26Z</time>
      </trkpt>
      <trkpt lat="43.60915" lon="2.96928">
        <ele>971.69925298272</ele>
        <time>2016-11-13T10:41:26Z</time>
      </trkpt>
      <trkpt lat="43.6091" lon="2.96908">
        <ele>968.82486740509</ele>
        <time>2016-11-13T10:42:26Z</time>
      </trkpt>
      <trkpt lat="43.60906" lon="2.9691">
        <ele>968.82486740509</ele>
        <time>2016-11-13T10:42:27Z</time>
      </trkpt>
      <trkpt lat="43.60899" lon="2.96917">
        <ele>965.91661085149</ele>
        <time>2016-11-13T10:42:43Z</time>
      </trkpt>
      <trkpt lat="43.60898" lon="2.96918">
        <ele>965.91661085149</ele>
        <time>2016-11-13T10:42:44Z</time>
      </trkpt>
      <trkpt lat="43.60897" lon="2.9692">
        <ele>965.91661085149</ele>
        <time>2016-11-13T10:42:51Z</time>
      </trkpt>
      <trkpt lat="43.6089" lon="2.96925">
        <ele>963.06438621342</ele>
        <time>2016-11-13T10:42:59Z</time>
      </trkpt>
      <trkpt lat="43.6088" lon="2.96934">
        <ele>960.27890044099</ele>
        <time>2016-11-13T10:43:24Z</time>
      </trkpt>
      <trkpt lat="43.60876" lon="2.96941">
        <ele>960.27890044099</ele>
        <time>2016-11-13T10:43:24Z</time>
      </trkpt>
      <trkpt lat="43.60874" lon="2.96953">
        <ele>957.55508211044</ele>
        <time>2016-11-13T10:43:38Z</time>
      </trkpt>
      <trkpt lat="43.60874" lon="2.96953">
        <ele>957.55508211044</ele>
        <time>2016-11-13T10:43:39Z</time>
      </trkpt>
      <trkpt lat="43.60852" lon="2.96984">
        <ele>954.49854777234</ele>
        <time>2016-11-13T10:44:44Z</time>
      </trkpt>
      <trkpt lat="43.60852" lon="2.96996">
        <ele>954.49854777234</ele>
        <time>2016-11-13T10:44:51Z</time>
      </trkpt>
      <trkpt lat="43.60854" lon="2.97007">
        <ele>951.32085225432</ele>
        <time>2016-11-13T10:45:08Z</time>
      </trkpt>
      <trkpt lat="43.60857" lon="2.97014">
        <ele>951.32085225432</ele>
        <time>2016-11-13T10:45:08Z</time>
      </trkpt>
      <trkpt lat="43.60857" lon="2.97015">
        <ele>951.32085225432</ele>
        <time>2016-11-13T10:45:47Z</time>
      </trkpt>
      <trkpt lat="43.60852" lon="2.97066">
        <ele>947.31000946712</ele>
        <time>2016-11-13T10:45:49Z</time>
      </trkpt>
      <trkpt lat="43.60852" lon="2.97066">
        <ele>947.31000946712</ele>
        <time>2016-11-13T10:45:54Z</time>
      </trkpt>
      <trkpt lat="43.60854" lon="2.97069">
        <ele>947.31000946712</ele>
        <time>2016-11-13T10:45:59Z</time>
      </trkpt>
      <trkpt lat="43.60857" lon="2.97074">
        <ele>947.31000946712</ele>
        <time>2016-11-13T10:46:04Z</time>
      </trkpt>
      <trkpt lat="43.60861" lon="2.97081">
        <ele>943.465525234</ele>
        <time>2016-11-13T10:46:09Z</time>
      </trkpt>
      <trkpt lat="43.60864" lon="2.97084">
        <ele>943.465525234</ele>
        <time>2016-11-13T10:46:19Z</time>
      </trkpt>
      <trkpt lat="43.60892" lon="2.97103">
        <ele>939.77582955644</ele>
        <time>2016-11-13T10:46:43Z</time>
      </trkpt>
      <trkpt lat="43.60892" lon="2.97105">
        <ele>939.77582955644</ele>
        <time>2016-11-13T10:46:44Z</time>
      </trkpt>
      <trkpt lat="43.60894" lon="2.97117">
        <ele>936.25812824864</ele>
        <time>2016-11-13T10:46:58Z</time>
      </trkpt>
      <trkpt lat="43.60908" lon="2.97149">
        <ele>932.56713057432</ele>
        <time>2016-11-13T10:47:18Z</time>
      </trkpt>
      <trkpt lat="43.60971" lon="2.97222">
        <ele>927.83529559524</ele>
        <time>2016-11-13T10:48:44Z</time>
      </trkpt>
      <trkpt lat="43.60991" lon="2.97236">
        <ele>922.96176639051</ele>
        <time>2016-11-13T10:49:09Z</time>
      </trkpt>
      <trkpt lat="43.61001" lon="2.97245">
        <ele>918.43367182342</ele>
        <time>2016-11-13T10:49:25Z</time>
      </trkpt>
      <trkpt lat="43.61004" lon="2.97252">
        <ele>918.43367182342</ele>
        <time>2016-11-13T10:49:25Z</time>
      </trkpt>
      <trkpt lat="43.61019" lon="2.97274">
        <ele>913.76416403306</ele>
        <time>2016-11-13T10:49:49Z</time>
      </trkpt>
      <trkpt lat="43.61045" lon="2.97293">
        <ele>909.06408679409</ele>
        <time>2016-11-13T10:50:36Z</time>
      </trkpt>
      <trkpt lat="43.6105" lon="2.97295">
        <ele>909.06408679409</ele>
        <time>2016-11-13T10:50:36Z</time>
      </trkpt>
      <trkpt lat="43.61056" lon="2.97299">
        <ele>904.70953104627</ele>
        <time>2016-11-13T10:50:44Z</time>
      </trkpt>
      <trkpt lat="43.6106" lon="2.973">
        <ele>904.70953104627</ele>
        <time>2016-11-13T10:50:49Z</time>
      </trkpt>
      <trkpt lat="43.61068" lon="2.97315">
        <ele>900.62955982464</ele>
        <time>2016-11-13T10:51:09Z</time>
      </trkpt>
      <trkpt lat="43.61063" lon="2.97324">
        <ele>900.62955982464</ele>
        <time>2016-11-13T10:51:09Z</time>
      </trkpt>
      <trkpt lat="43.6107" lon="2.97329">
        <ele>896.7139378233</ele>
        <time>2016-11-13T10:52:00Z</time>
      </trkpt>
      <trkpt lat="43.61071" lon="2.97332">
        <ele>896.7139378233</ele>
        <time>2016-11-13T10:56:29Z</time>
      </trkpt>
      <trkpt lat="43.60979" lon="2.97166">
        <ele>892.77309899425</ele>
        <time>2016-11-13T10:58:39Z</time>
      </trkpt>
      <trkpt lat="43.61062" lon="2.97319">
        <ele>889.38035937841</ele>
        <time>2016-11-13T11:00:48Z</time>
      </trkpt>
      <trkpt lat="43.6108" lon="2.97319">
        <ele>886.4308111778</ele>
        <time>2016-11-13T11:01:08Z</time>
      </trkpt>
      <trkpt lat="43.61085" lon="2.97328">
        <ele>886.4308111778</ele>
        <time>2016-11-13T11:01:08Z</time>
      </trkpt>
      <trkpt lat="43.61066" lon="2.97332">
        <ele>883.88318764318</ele>
        <time>2016-11-13T11:01:33Z</time>
      </trkpt>
      <trkpt lat="43.61068" lon="2.97331">
        <ele>883.88318764318</ele>
        <time>2016-11-13T11:01:58Z</time>
      </trkpt>
      <trkpt lat="43.6107" lon="2.97332">
        <ele>883.88318764318</ele>
        <time>2016-11-13T11:01:58Z</time>
      </trkpt>
    </trkseg>
  </trk>
</gpx>